Time;durP1;ratioP1;P1;durP2;ratioP2;P2;SDS_P1;SDS_P2;PMS_P1;PMS_P2;Temp;Humidity;BMP_temperature;BMP_pressure;BME280_temperature;BME280_humidity;BME280_pressure;Samples;Min_cycle;Max_cycle;Signal;HPM_P1;HPM_P2
2021/03/07 00:02:21;;;;;;;6.25;3.47;;;2.50;99.90;;;;;;4999249;28;20050;-82
2021/03/07 00:04:48;;;;;;;12.98;3.80;;;2.40;99.90;;;;;;5008985;28;20050;-81
2021/03/07 00:07:14;;;;;;;10.45;5.00;;;2.30;99.90;;;;;;5012041;28;20052;-82
2021/03/07 00:09:41;;;;;;;10.30;4.13;;;2.20;99.90;;;;;;5004029;28;20049;-81
2021/03/07 00:12:07;;;;;;;8.55;4.50;;;2.10;99.90;;;;;;5014135;28;20062;-83
2021/03/07 00:14:33;;;;;;;12.48;5.35;;;2.00;99.90;;;;;;5012929;28;20046;-83
2021/03/07 00:17:00;;;;;;;9.60;4.68;;;1.90;99.90;;;;;;4997305;28;20057;-82
2021/03/07 00:19:26;;;;;;;9.45;4.30;;;1.80;99.90;;;;;;4992960;28;20104;-83
2021/03/07 00:21:53;;;;;;;9.27;4.80;;;1.70;99.90;;;;;;4995126;28;20073;-83
2021/03/07 00:24:19;;;;;;;7.85;3.90;;;1.70;99.90;;;;;;4988471;28;20077;-82
2021/03/07 00:26:45;;;;;;;7.43;3.38;;;1.60;99.90;;;;;;5004188;28;20133;-82
2021/03/07 00:29:11;;;;;;;8.00;3.40;;;1.60;99.90;;;;;;4994531;28;20046;-82
2021/03/07 00:31:38;;;;;;;5.18;3.40;;;1.50;99.90;;;;;;4996045;28;20042;-82
2021/03/07 00:34:04;;;;;;;9.48;3.42;;;1.40;99.90;;;;;;4995436;28;20050;-82
2021/03/07 00:36:32;;;;;;;8.68;3.75;;;1.30;99.90;;;;;;5013674;28;20478;-82
2021/03/07 00:38:58;;;;;;;8.00;3.58;;;1.30;99.90;;;;;;5001913;28;20054;-81
2021/03/07 00:41:38;;;;;;;7.43;3.60;;;1.20;99.90;;;;;;5013327;28;20050;-83
2021/03/07 00:44:07;;;;;;;9.27;4.18;;;1.10;99.90;;;;;;5000824;28;20038;-81
2021/03/07 00:46:33;;;;;;;9.32;4.88;;;1.10;99.90;;;;;;5004804;28;20045;-82
2021/03/07 00:49:00;;;;;;;8.38;3.88;;;1.00;99.90;;;;;;5011437;28;21083;-82
2021/03/07 00:51:26;;;;;;;8.50;4.40;;;0.90;99.90;;;;;;4994220;28;20092;-82
2021/03/07 00:53:52;;;;;;;8.65;4.10;;;0.90;99.90;;;;;;5013992;28;20076;-82
2021/03/07 00:56:18;;;;;;;10.40;4.47;;;0.80;99.90;;;;;;4997333;28;20102;-82
2021/03/07 00:58:45;;;;;;;9.63;4.13;;;0.80;99.90;;;;;;4998986;28;20133;-81
2021/03/07 01:01:11;;;;;;;14.88;4.72;;;0.70;99.90;;;;;;4999648;28;20050;-82
2021/03/07 01:03:37;;;;;;;8.10;4.20;;;0.70;99.90;;;;;;5002129;28;20054;-82
2021/03/07 01:06:04;;;;;;;8.68;3.45;;;0.60;99.90;;;;;;5012083;28;20081;-82
2021/03/07 01:08:30;;;;;;;7.75;3.10;;;0.60;99.90;;;;;;5001866;28;20066;-82
2021/03/07 01:10:57;;;;;;;5.50;3.70;;;0.60;99.90;;;;;;4996816;28;20118;-83
2021/03/07 01:13:24;;;;;;;9.00;3.63;;;0.50;99.90;;;;;;5005760;28;20112;-82
2021/03/07 01:15:50;;;;;;;8.52;4.20;;;0.50;99.90;;;;;;5011163;28;20128;-82
2021/03/07 01:18:18;;;;;;;13.73;3.97;;;0.50;99.90;;;;;;5000095;28;20132;-82
2021/03/07 01:20:45;;;;;;;9.05;3.75;;;0.40;99.90;;;;;;4998282;28;20574;-82
2021/03/07 01:23:13;;;;;;;8.80;3.67;;;0.40;99.90;;;;;;5005350;28;20114;-82
2021/03/07 01:25:39;;;;;;;7.30;3.72;;;0.30;99.90;;;;;;5001544;28;20563;-82
2021/03/07 01:28:06;;;;;;;9.57;3.50;;;0.30;99.90;;;;;;4988064;28;20068;-82
2021/03/07 01:30:35;;;;;;;8.52;3.30;;;0.30;99.90;;;;;;5010127;28;20068;-82
2021/03/07 01:33:03;;;;;;;6.63;3.25;;;0.20;99.90;;;;;;4995856;28;20052;-82
2021/03/07 01:35:29;;;;;;;11.90;3.25;;;0.20;99.90;;;;;;4991075;28;20081;-81
2021/03/07 01:37:56;;;;;;;10.52;3.53;;;0.10;99.90;;;;;;4995290;28;20106;-82
2021/03/07 01:40:33;;;;;;;5.68;3.38;;;0.00;99.90;;;;;;5009688;28;20077;-81
2021/03/07 01:43:01;;;;;;;8.05;3.95;;;-0.10;99.90;;;;;;5010605;28;20050;-82
2021/03/07 01:45:29;;;;;;;8.05;4.35;;;-0.10;99.90;;;;;;5007141;28;20140;-81
2021/03/07 01:47:58;;;;;;;10.13;5.00;;;-0.20;99.90;;;;;;5013143;28;20142;-82
2021/03/07 01:50:27;;;;;;;12.43;4.20;;;-0.20;99.90;;;;;;4999896;28;20528;-82
2021/03/07 01:52:53;;;;;;;7.18;4.30;;;-0.20;99.90;;;;;;4998044;28;20054;-82
2021/03/07 01:55:24;;;;;;;10.38;4.47;;;-0.30;99.90;;;;;;4994043;28;20053;-82
2021/03/07 01:58:02;;;;;;;10.30;4.60;;;-0.30;99.90;;;;;;5010805;28;20149;-82
2021/03/07 02:00:29;;;;;;;10.18;4.75;;;-0.40;99.90;;;;;;4988436;28;20073;-82
2021/03/07 02:02:56;;;;;;;10.18;4.00;;;-0.40;99.90;;;;;;5001495;28;20073;-82
2021/03/07 02:05:23;;;;;;;5.43;3.45;;;-0.40;99.90;;;;;;5009864;28;20049;-82
2021/03/07 02:07:50;;;;;;;9.77;3.85;;;-0.50;99.90;;;;;;5003982;28;20137;-82
2021/03/07 02:10:21;;;;;;;7.85;3.90;;;-0.50;99.90;;;;;;4995011;28;20054;-82
2021/03/07 02:12:50;;;;;;;7.50;3.35;;;-0.50;99.90;;;;;;4998926;28;20103;-82
2021/03/07 02:15:17;;;;;;;3.83;2.78;;;-0.60;99.90;;;;;;5001123;28;20053;-82
2021/03/07 02:17:45;;;;;;;8.48;2.88;;;-0.60;99.90;;;;;;5000937;28;20050;-81
2021/03/07 02:20:16;;;;;;;6.80;2.97;;;-0.60;99.90;;;;;;4988598;28;20124;-81
2021/03/07 02:23:05;;;;;;;6.72;3.38;;;-0.60;99.90;;;;;;5007486;28;20041;-82
2021/03/07 02:25:31;;;;;;;6.50;3.00;;;-0.70;99.90;;;;;;5009836;28;20140;-82
2021/03/07 02:28:00;;;;;;;7.45;3.90;;;-0.70;99.90;;;;;;5011639;28;20481;-83
2021/03/07 02:30:26;;;;;;;7.15;2.97;;;-0.80;99.90;;;;;;5002562;28;20420;-82
2021/03/07 02:33:07;;;;;;;6.32;3.78;;;-0.80;99.90;;;;;;5010792;28;20033;-82
2021/03/07 02:35:37;;;;;;;10.23;3.95;;;-0.80;99.90;;;;;;4995414;28;20056;-82
2021/03/07 02:38:07;;;;;;;8.25;3.75;;;-0.80;99.90;;;;;;5001479;28;20310;-82
2021/03/07 02:40:38;;;;;;;10.57;4.20;;;-0.90;99.90;;;;;;5009362;28;20073;-82
2021/03/07 02:43:11;;;;;;;7.90;3.05;;;-0.90;99.90;;;;;;4991203;28;21010;-81
2021/03/07 02:45:39;;;;;;;14.48;4.45;;;-1.00;99.90;;;;;;5008113;28;20053;-82
2021/03/07 02:48:08;;;;;;;9.02;4.25;;;-1.00;99.90;;;;;;4999295;28;20054;-82
2021/03/07 02:50:35;;;;;;;12.10;4.18;;;-1.00;99.90;;;;;;4996381;28;20056;-82
2021/03/07 02:53:05;;;;;;;9.98;4.13;;;-1.00;99.90;;;;;;4992465;28;20141;-82
2021/03/07 02:55:35;;;;;;;16.52;4.07;;;-1.00;99.90;;;;;;5006172;28;20519;-81
2021/03/07 02:58:05;;;;;;;13.63;4.65;;;-1.00;99.90;;;;;;4991909;28;20068;-81
2021/03/07 03:00:33;;;;;;;10.40;4.03;;;-1.10;99.90;;;;;;5008654;28;20509;-82
2021/03/07 03:03:07;;;;;;;13.35;3.80;;;-1.10;99.90;;;;;;4992688;28;20046;-82
2021/03/07 03:05:35;;;;;;;14.18;4.00;;;-1.10;99.90;;;;;;4997057;28;20416;-81
2021/03/07 03:08:02;;;;;;;10.35;4.10;;;-1.10;99.90;;;;;;5009918;28;20042;-81
2021/03/07 03:10:30;;;;;;;9.57;4.15;;;-1.10;99.90;;;;;;5008586;28;20081;-81
2021/03/07 03:12:59;;;;;;;17.35;4.47;;;-1.10;99.90;;;;;;4999996;28;20046;-81
2021/03/07 03:15:25;;;;;;;12.57;4.85;;;-1.10;99.90;;;;;;5007896;28;20375;-81
2021/03/07 03:17:53;;;;;;;10.57;3.78;;;-1.20;99.90;;;;;;5010485;28;20038;-82
2021/03/07 03:20:21;;;;;;;12.55;4.28;;;-1.20;99.90;;;;;;4992723;28;20050;-82
2021/03/07 03:22:48;;;;;;;10.10;3.97;;;-1.30;99.90;;;;;;4998798;28;20081;-81
2021/03/07 03:25:15;;;;;;;17.90;4.20;;;-1.30;99.90;;;;;;5001259;28;20053;-82
2021/03/07 03:27:42;;;;;;;11.50;3.92;;;-1.30;99.90;;;;;;4996475;28;20060;-82
2021/03/07 03:30:20;;;;;;;11.43;4.57;;;-1.40;99.90;;;;;;4999288;28;20466;-82
2021/03/07 03:32:46;;;;;;;11.45;6.07;;;-1.40;99.90;;;;;;4998712;28;20076;-82
2021/03/07 03:35:15;;;;;;;14.13;4.65;;;-1.40;99.90;;;;;;4998727;28;20046;-83
2021/03/07 03:37:43;;;;;;;17.35;5.20;;;-1.50;99.90;;;;;;4991841;28;20109;-83
2021/03/07 03:40:19;;;;;;;14.52;5.60;;;-1.50;99.90;;;;;;4990151;28;20064;-83
2021/03/07 03:42:50;;;;;;;18.90;5.30;;;-1.50;99.90;;;;;;5008531;28;20048;-82
2021/03/07 03:45:18;;;;;;;15.95;4.40;;;-1.50;99.90;;;;;;5001109;28;20082;-83
2021/03/07 03:47:48;;;;;;;24.13;5.22;;;-1.60;99.90;;;;;;5008581;28;20504;-84
2021/03/07 03:50:16;;;;;;;14.40;5.00;;;-1.60;99.90;;;;;;5012496;28;20145;-83
2021/03/07 03:52:46;;;;;;;13.80;4.80;;;-1.60;99.90;;;;;;4996807;28;20054;-83
2021/03/07 03:55:28;;;;;;;13.75;5.55;;;-1.60;99.90;;;;;;5011509;28;20069;-83
2021/03/07 03:58:04;;;;;;;8.93;4.55;;;-1.70;99.90;;;;;;4996487;28;20110;-83
2021/03/07 04:00:34;;;;;;;9.88;4.63;;;-1.60;99.90;;;;;;5014855;28;20057;-83
2021/03/07 04:03:00;;;;;;;11.52;4.85;;;-1.60;99.90;;;;;;4999297;28;20941;-84
2021/03/07 04:05:29;;;;;;;13.20;4.70;;;-1.60;99.90;;;;;;4996233;28;20464;-82
2021/03/07 04:07:56;;;;;;;8.88;4.10;;;-1.60;99.90;;;;;;5013154;28;20050;-81
2021/03/07 04:10:24;;;;;;;11.07;5.07;;;-1.50;99.90;;;;;;5014478;28;20140;-82
2021/03/07 04:12:52;;;;;;;12.40;5.05;;;-1.50;99.90;;;;;;5003095;28;20076;-82
2021/03/07 04:15:20;;;;;;;8.80;4.63;;;-1.40;99.90;;;;;;5012079;28;20082;-81
2021/03/07 04:17:50;;;;;;;9.23;3.60;;;-1.40;99.90;;;;;;5000958;28;20144;-82
2021/03/07 04:20:18;;;;;;;11.18;4.80;;;-1.30;99.90;;;;;;5014627;28;20136;-81
2021/03/07 04:22:48;;;;;;;13.23;4.75;;;-1.30;99.90;;;;;;4990339;28;20073;-81
2021/03/07 04:25:15;;;;;;;7.13;3.95;;;-1.30;99.90;;;;;;4995903;28;20069;-82
2021/03/07 04:27:43;;;;;;;14.85;4.32;;;-1.20;99.90;;;;;;4994047;28;20048;-82
2021/03/07 04:30:10;;;;;;;13.75;4.30;;;-1.20;99.90;;;;;;5015821;28;20145;-82
2021/03/07 04:32:36;;;;;;;13.65;4.40;;;-1.10;99.90;;;;;;5014448;28;20153;-82
2021/03/07 04:35:04;;;;;;;10.75;4.85;;;-1.10;99.90;;;;;;5013815;28;20134;-82
2021/03/07 04:37:31;;;;;;;11.23;3.95;;;-1.00;99.90;;;;;;4995949;28;20046;-82
2021/03/07 04:39:57;;;;;;;13.48;4.55;;;-1.00;99.90;;;;;;5001818;28;20064;-81
2021/03/07 04:42:23;;;;;;;10.18;3.50;;;-0.90;99.90;;;;;;5011745;28;20137;-81
2021/03/07 04:44:50;;;;;;;9.98;4.38;;;-0.90;99.90;;;;;;5011423;28;20607;-83
2021/03/07 04:47:16;;;;;;;10.95;4.07;;;-0.80;99.90;;;;;;4996932;28;20120;-82
2021/03/07 04:49:42;;;;;;;9.40;4.43;;;-0.80;99.90;;;;;;5012859;28;20072;-82
2021/03/07 04:52:09;;;;;;;12.15;5.82;;;-0.70;99.90;;;;;;5012530;28;20060;-81
2021/03/07 04:54:35;;;;;;;11.27;4.53;;;-0.60;99.90;;;;;;5002495;28;20224;-82
2021/03/07 04:57:05;;;;;;;10.95;4.90;;;-0.50;99.90;;;;;;5014253;28;20480;-83
2021/03/07 04:59:32;;;;;;;10.38;4.30;;;-0.50;99.90;;;;;;5011692;28;20140;-82
2021/03/07 05:01:58;;;;;;;14.50;4.78;;;-0.40;99.90;;;;;;5003823;28;20034;-81
2021/03/07 05:04:25;;;;;;;8.80;4.78;;;-0.40;99.90;;;;;;5003134;28;20050;-83
2021/03/07 05:06:54;;;;;;;11.60;4.90;;;-0.30;99.90;;;;;;5010874;28;20100;-82
2021/03/07 05:09:20;;;;;;;9.27;4.82;;;-0.30;99.90;;;;;;5008409;28;20057;-82
2021/03/07 05:11:46;;;;;;;14.05;5.43;;;-0.30;99.90;;;;;;5003550;28;20054;-80
2021/03/07 05:14:12;;;;;;;11.10;5.25;;;-0.20;99.90;;;;;;5011523;28;20050;-81
2021/03/07 05:16:39;;;;;;;10.55;5.10;;;-0.20;99.90;;;;;;5003201;28;20053;-82
2021/03/07 05:19:06;;;;;;;17.95;5.93;;;-0.20;99.90;;;;;;5000156;28;20057;-82
2021/03/07 05:21:32;;;;;;;9.73;4.53;;;-0.10;99.90;;;;;;4996492;28;20077;-83
2021/03/07 05:24:02;;;;;;;13.80;5.03;;;-0.10;99.90;;;;;;4997117;28;20140;-84
2021/03/07 05:26:29;;;;;;;8.77;4.30;;;0.00;99.90;;;;;;4987100;28;20076;-82
2021/03/07 05:28:56;;;;;;;12.88;5.20;;;0.00;99.90;;;;;;5002098;28;20050;-83
2021/03/07 05:31:23;;;;;;;10.98;4.18;;;0.00;99.90;;;;;;5004633;28;20057;-83
2021/03/07 05:33:50;;;;;;;7.38;4.68;;;0.00;99.90;;;;;;5003142;28;20100;-84
2021/03/07 05:36:16;;;;;;;11.60;4.90;;;0.10;99.90;;;;;;5009375;28;20457;-80
2021/03/07 05:38:43;;;;;;;14.10;5.43;;;0.10;99.90;;;;;;4997072;28;20054;-82
2021/03/07 05:41:12;;;;;;;9.50;4.40;;;0.10;99.90;;;;;;5010210;28;20065;-82
2021/03/07 05:43:40;;;;;;;11.10;4.15;;;0.20;99.90;;;;;;5003337;28;20053;-82
2021/03/07 05:46:08;;;;;;;13.63;4.85;;;0.20;99.90;;;;;;5011655;28;20104;-80
2021/03/07 05:48:35;;;;;;;13.88;4.80;;;0.20;99.90;;;;;;5012678;28;20056;-83
2021/03/07 05:51:02;;;;;;;8.95;4.65;;;0.30;99.90;;;;;;5015591;28;20064;-82
2021/03/07 05:53:30;;;;;;;9.00;5.32;;;0.20;99.90;;;;;;5002597;28;20118;-81
2021/03/07 05:55:57;;;;;;;10.35;4.28;;;0.30;99.90;;;;;;5002804;28;20125;-84
2021/03/07 05:58:26;;;;;;;11.95;4.35;;;0.30;99.90;;;;;;4999955;28;20642;-80
2021/03/07 06:00:53;;;;;;;12.20;4.72;;;0.30;99.90;;;;;;5000511;28;20129;-80
2021/03/07 06:03:21;;;;;;;7.60;4.47;;;0.30;99.90;;;;;;4999811;28;20125;-82
2021/03/07 06:05:51;;;;;;;10.38;5.00;;;0.30;99.90;;;;;;5010301;28;20045;-81
2021/03/07 06:08:19;;;;;;;10.82;4.65;;;0.40;99.90;;;;;;5009778;28;20616;-81
2021/03/07 06:10:46;;;;;;;10.60;4.97;;;0.30;99.90;;;;;;4990776;28;20090;-82
2021/03/07 06:13:12;;;;;;;11.52;4.82;;;0.40;99.90;;;;;;5011616;28;20054;-82
2021/03/07 06:15:51;;;;;;;6.22;3.63;;;0.40;99.90;;;;;;4995070;28;20056;-82
2021/03/07 06:18:20;;;;;;;8.52;3.70;;;0.40;99.90;;;;;;4999790;28;20052;-82
2021/03/07 06:20:53;;;;;;;9.98;3.58;;;0.50;99.90;;;;;;4995663;28;20072;-82
2021/03/07 06:23:34;;;;;;;14.30;4.68;;;0.50;99.90;;;;;;4994699;28;21001;-85
2021/03/07 06:26:09;;;;;;;6.55;3.83;;;0.60;99.90;;;;;;5007752;28;20092;-82
2021/03/07 06:28:36;;;;;;;6.93;3.80;;;0.60;99.90;;;;;;4997266;28;20459;-83
2021/03/07 06:31:02;;;;;;;7.00;4.68;;;0.60;99.90;;;;;;5010901;28;20124;-83
2021/03/07 06:33:31;;;;;;;9.98;4.32;;;0.70;99.90;;;;;;4994014;28;20049;-82
2021/03/07 06:36:17;;;;;;;12.20;4.80;;;0.70;99.90;;;;;;5001463;28;20056;-82
2021/03/07 06:38:48;;;;;;;13.07;5.10;;;0.70;99.90;;;;;;4990200;28;20042;-83
2021/03/07 06:41:16;;;;;;;10.48;5.70;;;0.70;99.90;;;;;;5009257;28;20405;-83
2021/03/07 06:43:42;;;;;;;8.95;5.20;;;0.70;99.90;;;;;;4994847;28;20132;-81
2021/03/07 06:46:26;;;;;;;8.88;4.05;;;0.80;99.90;;;;;;4996611;28;20057;-82
2021/03/07 06:48:53;;;;;;;8.40;3.47;;;0.80;99.90;;;;;;5001211;28;20049;-82
2021/03/07 06:51:45;;;;;;;5.70;3.50;;;0.80;99.90;;;;;;5011859;28;20121;-83
2021/03/07 06:54:20;;;;;;;10.57;3.90;;;0.80;99.90;;;;;;4987403;28;20050;-81
2021/03/07 06:56:50;;;;;;;8.95;4.10;;;0.90;99.90;;;;;;5009184;28;20130;-84
2021/03/07 06:59:18;;;;;;;6.28;3.58;;;0.90;99.90;;;;;;5010975;28;20136;-83
2021/03/07 07:01:46;;;;;;;6.70;3.58;;;1.00;99.90;;;;;;5001316;28;20037;-84
2021/03/07 07:04:15;;;;;;;9.15;3.42;;;1.00;99.90;;;;;;4997043;28;20045;-84
2021/03/07 07:06:42;;;;;;;17.80;8.07;;;1.10;99.90;;;;;;4993145;28;20045;-83
2021/03/07 07:09:11;;;;;;;6.35;4.22;;;1.10;99.90;;;;;;4994351;28;20098;-84
2021/03/07 07:11:47;;;;;;;6.40;3.78;;;1.20;99.90;;;;;;5009003;28;20517;-83
2021/03/07 07:14:28;;;;;;;8.10;3.60;;;1.20;99.90;;;;;;4999063;28;20125;-85
2021/03/07 07:16:55;;;;;;;6.40;3.95;;;1.20;99.90;;;;;;4993974;28;20474;-84
2021/03/07 07:19:22;;;;;;;9.75;3.97;;;1.20;99.90;;;;;;5005402;28;20133;-81
2021/03/07 07:21:48;;;;;;;8.75;3.60;;;1.30;99.90;;;;;;4990246;28;20054;-82
2021/03/07 07:24:16;;;;;;;5.43;3.42;;;1.30;99.90;;;;;;5007026;28;20081;-82
2021/03/07 07:26:44;;;;;;;16.75;5.15;;;1.40;99.90;;;;;;4993285;28;20054;-83
2021/03/07 07:29:11;;;;;;;9.32;4.90;;;1.50;99.90;;;;;;4986388;28;20505;-84
2021/03/07 07:32:04;;;;;;;9.60;4.07;;;1.50;99.90;;;;;;4990387;28;20145;-82
2021/03/07 07:34:42;;;;;;;6.15;3.97;;;1.60;99.90;;;;;;4971694;28;20054;-79
2021/03/07 07:37:17;;;;;;;8.02;3.28;;;1.70;99.90;;;;;;5007094;28;20477;-80
2021/03/07 07:39:44;;;;;;;15.77;6.68;;;1.70;99.90;;;;;;4987166;28;20401;-81
2021/03/07 07:42:30;;;;;;;5.35;3.33;;;1.70;99.90;;;;;;5000501;28;20066;-81
2021/03/07 07:44:59;;;;;;;6.32;3.60;;;1.70;99.90;;;;;;4985652;28;20132;-81
2021/03/07 07:47:41;;;;;;;7.45;3.55;;;1.80;99.90;;;;;;4987596;28;20060;-80
2021/03/07 07:50:28;;;;;;;5.28;3.40;;;1.90;99.90;;;;;;4990132;28;20096;-81
2021/03/07 07:53:02;;;;;;;6.78;3.60;;;2.00;99.90;;;;;;5007767;28;20103;-84
2021/03/07 07:55:41;;;;;;;6.60;3.47;;;2.10;99.90;;;;;;4996158;28;20216;-80
2021/03/07 07:58:08;;;;;;;6.43;2.85;;;2.20;99.90;;;;;;4995139;28;20042;-80
2021/03/07 08:00:49;;;;;;;5.18;3.25;;;2.20;99.90;;;;;;4984379;28;20504;-82
2021/03/07 08:03:44;;;;;;;9.07;3.55;;;2.40;99.90;;;;;;4995228;28;20054;-81
2021/03/07 08:06:14;;;;;;;9.38;3.58;;;2.40;99.90;;;;;;5007810;28;20070;-82
2021/03/07 08:08:43;;;;;;;7.80;3.28;;;2.50;99.90;;;;;;5002179;28;20148;-83
2021/03/07 08:11:18;;;;;;;5.18;2.90;;;2.60;99.90;;;;;;4994536;28;20048;-81
2021/03/07 08:14:02;;;;;;;4.93;2.97;;;2.60;99.90;;;;;;5006645;28;20687;-82
2021/03/07 08:16:47;;;;;;;4.40;3.15;;;2.70;99.90;;;;;;4994570;28;20054;-84
2021/03/07 08:19:15;;;;;;;;;;;2.70;99.90;;;;;;4990447;28;20061;-83
2021/03/07 08:22:06;;;;;;;4.47;2.47;;;2.80;99.90;;;;;;5011979;28;19935;-82
2021/03/07 08:24:53;;;;;;;7.03;2.90;;;2.80;99.90;;;;;;4991134;28;20134;-84
2021/03/07 08:27:32;;;;;;;4.15;2.70;;;2.80;99.90;;;;;;4997517;28;20060;-84
2021/03/07 08:29:58;;;;;;;5.55;3.38;;;2.90;99.90;;;;;;5010282;28;20128;-82
2021/03/07 08:32:39;;;;;;;8.25;2.70;;;3.10;99.90;;;;;;5011995;28;20050;-84
2021/03/07 08:35:15;;;;;;;6.13;2.42;;;3.10;99.90;;;;;;4990641;28;20046;-83
2021/03/07 08:37:42;;;;;;;3.95;2.63;;;3.10;99.90;;;;;;4989496;28;20109;-83
2021/03/07 08:40:31;;;;;;;6.95;2.42;;;3.20;99.90;;;;;;4994104;28;20065;-84
2021/03/07 08:43:23;;;;;;;5.70;3.05;;;3.20;99.90;;;;;;5006111;28;20073;-83
2021/03/07 08:46:00;;;;;;;4.43;2.70;;;3.30;99.90;;;;;;5007847;28;20109;-84
2021/03/07 08:48:27;;;;;;;4.50;3.28;;;3.30;99.90;;;;;;5009819;28;20069;-82
2021/03/07 08:50:55;;;;;;;5.00;3.00;;;3.40;99.90;;;;;;5001722;28;20053;-81
2021/03/07 08:53:28;;;;;;;8.88;4.93;;;3.50;99.90;;;;;;5008631;28;21641;-83
2021/03/07 08:55:55;;;;;;;5.53;3.47;;;3.50;99.90;;;;;;5006721;28;20050;-82
2021/03/07 08:58:23;;;;;;;5.63;2.85;;;3.60;99.90;;;;;;5007588;28;20061;-82
2021/03/07 09:00:52;;;;;;;6.30;2.88;;;3.60;99.90;;;;;;5010204;28;20067;-81
2021/03/07 09:03:22;;;;;;;5.30;2.92;;;3.70;99.90;;;;;;5008597;28;20049;-81
2021/03/07 09:05:49;;;;;;;7.15;3.42;;;3.80;99.90;;;;;;5001957;28;20066;-81
2021/03/07 09:08:20;;;;;;;6.57;3.25;;;3.80;99.90;;;;;;5000433;28;20054;-82
2021/03/07 09:10:49;;;;;;;5.05;2.45;;;3.90;99.90;;;;;;5007046;28;20123;-83
2021/03/07 09:13:21;;;;;;;9.15;3.03;;;4.00;99.90;;;;;;5007263;28;20050;-80
2021/03/07 09:15:53;;;;;;;9.95;2.80;;;4.00;99.90;;;;;;5008265;28;20081;-83
2021/03/07 09:18:32;;;;;;;7.05;2.53;;;4.10;99.90;;;;;;5005671;28;20442;-80
2021/03/07 09:21:17;;;;;;;5.15;2.67;;;4.20;99.90;;;;;;4990878;28;20449;-79
2021/03/07 09:23:49;;;;;;;12.18;2.40;;;4.30;99.90;;;;;;5003014;28;20147;-78
2021/03/07 09:26:19;;;;;;;5.47;2.42;;;4.40;99.90;;;;;;4993056;28;20132;-78
2021/03/07 09:28:53;;;;;;;5.30;2.40;;;4.40;99.90;;;;;;5003108;28;20119;-78
2021/03/07 09:31:20;;;;;;;2.53;1.73;;;4.40;99.90;;;;;;4982619;28;20695;-78
2021/03/07 09:34:00;;;;;;;4.25;2.22;;;4.50;99.90;;;;;;5001872;28;20412;-78
2021/03/07 09:36:27;;;;;;;4.00;2.00;;;4.60;99.90;;;;;;5007118;28;20054;-78
2021/03/07 09:39:04;;;;;;;3.78;2.20;;;4.60;99.90;;;;;;4997461;28;20072;-78
2021/03/07 09:41:38;;;;;;;3.25;2.17;;;4.70;99.90;;;;;;5004190;28;20042;-79
2021/03/07 09:44:10;;;;;;;3.08;2.30;;;4.80;99.90;;;;;;5006383;28;20124;-78
2021/03/07 09:46:37;;;;;;;3.83;1.80;;;4.80;99.90;;;;;;5005682;28;20052;-79
2021/03/07 09:49:06;;;;;;;5.43;2.30;;;4.90;99.90;;;;;;4995988;28;20509;-77
2021/03/07 09:51:36;;;;;;;3.63;1.85;;;5.00;99.90;;;;;;5005860;28;20060;-78
2021/03/07 09:54:04;;;;;;;4.50;1.73;;;5.10;99.90;;;;;;5006326;28;20137;-77
2021/03/07 09:56:33;;;;;;;5.03;1.60;;;5.20;99.90;;;;;;5005328;28;20510;-78
2021/03/07 09:59:09;;;;;;;5.10;2.50;;;5.20;99.90;;;;;;4990003;28;20044;-78
2021/03/07 10:01:50;;;;;;;5.10;3.20;;;5.30;99.90;;;;;;5005119;28;20127;-78
2021/03/07 10:04:47;;;;;;;3.25;2.53;;;5.40;99.90;;;;;;5008302;28;20100;-77
2021/03/07 10:07:17;;;;;;;4.65;2.55;;;5.50;99.90;;;;;;5005107;28;20138;-77
2021/03/07 10:10:11;;;;;;;7.85;3.13;;;5.60;99.90;;;;;;5006748;28;20050;-78
2021/03/07 10:12:54;;;;;;;6.03;3.47;;;5.70;99.90;;;;;;4988813;28;20057;-78
2021/03/07 10:15:27;;;;;;;15.18;7.65;;;5.80;99.90;;;;;;4988643;28;20053;-77
2021/03/07 10:18:18;;;;;;;10.82;5.07;;;6.00;99.90;;;;;;4990238;28;20139;-77
2021/03/07 10:20:47;;;;;;;10.98;4.57;;;6.10;99.90;;;;;;5007940;28;20128;-78
2021/03/07 10:23:13;;;;;;;5.22;2.35;;;6.30;99.90;;;;;;5002443;28;20136;-78
2021/03/07 10:25:47;;;;;;;8.07;1.63;;;6.30;99.90;;;;;;5008242;28;20133;-79
2021/03/07 10:28:31;;;;;;;4.50;1.90;;;6.50;99.90;;;;;;4998705;28;20038;-77
2021/03/07 10:31:12;;;;;;;3.95;1.58;;;6.60;99.90;;;;;;4997816;28;20141;-79
2021/03/07 10:33:39;;;;;;;4.22;1.77;;;6.60;99.90;;;;;;5008659;28;20095;-79
2021/03/07 10:36:10;;;;;;;9.80;3.75;;;6.60;99.90;;;;;;4999865;28;20118;-79
2021/03/07 10:38:38;;;;;;;13.93;5.18;;;6.60;99.90;;;;;;4996626;28;20054;-79
2021/03/07 10:41:32;;;;;;;8.45;2.90;;;6.60;99.90;;;;;;4989940;28;20061;-78
2021/03/07 10:44:03;;;;;;;2.50;2.00;;;6.60;99.90;;;;;;5006115;28;20045;-78
2021/03/07 10:46:39;;;;;;;4.07;2.47;;;6.60;99.90;;;;;;4973296;28;20121;-78
2021/03/07 10:49:21;;;;;;;3.28;1.88;;;6.60;99.90;;;;;;4997963;28;20041;-78
2021/03/07 10:51:48;;;;;;;5.20;1.95;;;6.50;99.90;;;;;;5001202;28;20057;-78
2021/03/07 10:54:14;;;;;;;3.60;2.15;;;6.50;99.90;;;;;;4993359;28;20058;-79
2021/03/07 10:56:41;;;;;;;3.25;2.20;;;6.50;99.90;;;;;;4986287;28;20049;-78
2021/03/07 10:59:09;;;;;;;4.18;2.60;;;6.50;99.90;;;;;;4988152;28;20048;-80
2021/03/07 11:01:38;;;;;;;3.85;2.67;;;6.40;99.90;;;;;;4990724;28;20061;-79
2021/03/07 11:04:05;;;;;;;5.60;3.55;;;6.50;99.90;;;;;;5005311;28;21085;-78
2021/03/07 11:06:31;;;;;;;3.22;2.58;;;6.50;99.40;;;;;;4999612;28;20144;-79
2021/03/07 11:08:59;;;;;;;4.32;2.78;;;6.50;97.90;;;;;;4995862;28;20056;-78
2021/03/07 11:11:25;;;;;;;3.50;2.42;;;6.50;98.00;;;;;;4995736;28;20054;-77
2021/03/07 11:13:51;;;;;;;4.28;2.90;;;6.60;97.40;;;;;;4995195;28;20072;-79
2021/03/07 11:16:17;;;;;;;4.82;2.65;;;6.60;98.80;;;;;;5005624;28;20050;-80
2021/03/07 11:18:44;;;;;;;6.10;3.50;;;6.70;97.80;;;;;;5004690;28;20046;-79
2021/03/07 11:21:11;;;;;;;7.18;3.28;;;6.80;98.10;;;;;;5007502;28;20136;-80
2021/03/07 11:23:37;;;;;;;4.78;3.13;;;6.90;95.50;;;;;;5004419;28;20149;-79
2021/03/07 11:26:03;;;;;;;5.22;3.60;;;7.00;93.60;;;;;;5002708;28;20133;-79
2021/03/07 11:28:30;;;;;;;5.40;3.53;;;7.00;95.30;;;;;;4986127;28;20519;-79
2021/03/07 11:30:57;;;;;;;8.90;4.43;;;7.10;96.40;;;;;;5006119;28;20103;-79
2021/03/07 11:33:24;;;;;;;4.90;3.72;;;7.30;96.00;;;;;;5005446;28;20073;-79
2021/03/07 11:35:51;;;;;;;6.10;3.95;;;7.40;94.30;;;;;;4988579;28;20489;-78
2021/03/07 11:38:19;;;;;;;5.53;3.30;;;7.60;92.70;;;;;;5002727;28;20456;-80
2021/03/07 11:40:45;;;;;;;5.55;3.20;;;7.70;91.90;;;;;;5004211;28;20133;-79
2021/03/07 11:43:12;;;;;;;5.47;3.28;;;7.90;89.00;;;;;;5002896;28;20065;-78
2021/03/07 11:45:38;;;;;;;4.47;3.40;;;8.10;90.20;;;;;;5003022;28;20058;-78
2021/03/07 11:48:05;;;;;;;8.40;3.72;;;8.30;84.20;;;;;;4979364;28;20050;-79
2021/03/07 11:50:31;;;;;;;7.60;4.35;;;8.50;85.00;;;;;;4999390;28;20046;-77
2021/03/07 11:52:58;;;;;;;5.93;4.50;;;8.70;79.30;;;;;;4988604;28;25538;-79
2021/03/07 11:55:24;;;;;;;5.70;4.43;;;8.80;79.50;;;;;;5006407;28;20042;-79
2021/03/07 11:57:50;;;;;;;6.47;4.70;;;8.90;75.90;;;;;;4974775;28;20141;-78
2021/03/07 12:00:17;;;;;;;9.43;5.03;;;8.90;74.50;;;;;;4971363;28;20049;-79
2021/03/07 12:02:43;;;;;;;8.20;4.75;;;9.00;73.00;;;;;;5005765;28;20493;-79
2021/03/07 12:05:11;;;;;;;9.43;4.03;;;8.90;74.00;;;;;;4999237;28;20058;-79
2021/03/07 12:07:37;;;;;;;6.57;5.15;;;8.90;75.30;;;;;;4992290;28;20049;-82
2021/03/07 12:10:05;;;;;;;6.40;4.63;;;8.90;75.00;;;;;;4984773;28;20046;-79
2021/03/07 12:12:31;;;;;;;8.50;6.13;;;8.90;75.90;;;;;;5008447;28;20121;-81
2021/03/07 12:14:57;;;;;;;10.65;5.97;;;9.00;72.60;;;;;;4992098;28;20966;-81
2021/03/07 12:17:24;;;;;;;9.70;6.00;;;8.90;73.80;;;;;;5009541;28;20054;-81
2021/03/07 12:20:02;;;;;;;8.05;5.55;;;8.80;71.70;;;;;;5010645;28;20053;-79
2021/03/07 12:22:28;;;;;;;12.57;5.95;;;8.70;74.90;;;;;;4995414;28;20053;-80
2021/03/07 12:24:54;;;;;;;12.85;7.72;;;8.70;73.20;;;;;;5010015;28;20409;-80
2021/03/07 12:27:20;;;;;;;13.20;7.07;;;8.60;74.10;;;;;;4991412;28;20050;-79
2021/03/07 12:29:49;;;;;;;10.70;6.70;;;8.60;73.00;;;;;;4993073;28;20062;-78
2021/03/07 12:32:17;;;;;;;9.68;6.28;;;8.50;72.40;;;;;;4999288;28;20046;-78
2021/03/07 12:34:43;;;;;;;9.30;6.38;;;8.50;74.60;;;;;;5007327;28;20056;-79
2021/03/07 12:37:09;;;;;;;9.82;6.72;;;8.50;75.90;;;;;;5009904;28;20382;-79
2021/03/07 12:39:36;;;;;;;9.98;6.07;;;8.50;76.60;;;;;;4992316;28;20060;-79
2021/03/07 12:42:03;;;;;;;7.95;5.45;;;8.50;77.10;;;;;;5009606;28;20120;-79
2021/03/07 12:44:29;;;;;;;7.47;5.15;;;8.50;76.30;;;;;;5006671;28;20077;-79
2021/03/07 12:46:56;;;;;;;16.20;6.88;;;8.50;77.60;;;;;;5008211;28;20058;-78
2021/03/07 12:49:23;;;;;;;12.32;7.18;;;8.50;79.00;;;;;;4985874;28;20133;-79
2021/03/07 12:51:49;;;;;;;12.90;7.22;;;8.50;74.70;;;;;;5010691;28;24999;-79
2021/03/07 12:54:16;;;;;;;11.77;7.32;;;8.50;78.20;;;;;;4991240;28;20046;-78
2021/03/07 12:56:42;;;;;;;12.90;7.78;;;8.50;73.90;;;;;;5006699;28;20077;-79
2021/03/07 12:59:08;;;;;;;11.43;7.05;;;8.40;73.90;;;;;;4990533;28;20779;-81
2021/03/07 13:01:35;;;;;;;8.57;6.88;;;8.40;74.50;;;;;;4997634;28;20119;-80
2021/03/07 13:04:02;;;;;;;11.88;8.00;;;8.40;75.60;;;;;;4996742;28;24454;-81
2021/03/07 13:06:28;;;;;;;11.88;7.82;;;8.30;75.30;;;;;;4987772;28;20050;-81